Time;durP1;ratioP1;P1;durP2;ratioP2;P2;SDS_P1;SDS_P2;PMS_P1;PMS_P2;Temp;Humidity;BMP_temperature;BMP_pressure;BME280_temperature;BME280_humidity;BME280_pressure;Samples;Min_cycle;Max_cycle;Signal;HPM_P1;HPM_P2
2022/03/17 00:00:10;;;;;;;25.33;19.83;;;;;;;11.90;59.74;101835.41;5030315;28;20532;-62
2022/03/17 00:02:36;;;;;;;25.25;19.33;;;;;;;11.91;59.88;101851.03;5026475;28;20026;-62
2022/03/17 00:05:03;;;;;;;26.40;20.25;;;;;;;11.91;59.73;101845.47;5030944;28;20033;-62
2022/03/17 00:07:28;;;;;;;24.10;19.35;;;;;;;11.90;59.96;101849.31;5030068;28;20507;-63
2022/03/17 00:09:54;;;;;;;28.85;21.42;;;;;;;11.89;60.24;101850.41;5029650;28;20029;-62
2022/03/17 00:12:19;;;;;;;27.10;20.20;;;;;;;11.89;60.16;101844.00;5031079;28;20033;-62
2022/03/17 00:14:45;;;;;;;24.38;19.55;;;;;;;11.87;60.22;101838.69;5030419;28;20507;-62
2022/03/17 00:17:10;;;;;;;25.30;20.10;;;;;;;11.86;60.11;101845.31;5030682;28;20095;-62
2022/03/17 00:19:38;;;;;;;24.98;19.92;;;;;;;11.88;59.95;101831.19;5027323;28;20029;-61
2022/03/17 00:22:08;;;;;;;24.80;20.13;;;;;;;11.83;60.24;101840.25;5028992;28;20045;-62
2022/03/17 00:24:35;;;;;;;23.40;19.25;;;;;;;11.87;60.37;101835.91;5032631;28;20040;-62
2022/03/17 00:27:01;;;;;;;25.70;20.27;;;;;;;11.88;60.32;101831.19;5032092;28;20031;-62
2022/03/17 00:29:27;;;;;;;25.65;20.15;;;;;;;11.84;60.48;101830.81;5028164;28;20044;-62
2022/03/17 00:31:53;;;;;;;24.88;20.70;;;;;;;11.80;60.35;101829.56;5029462;28;20021;-62
2022/03/17 00:34:18;;;;;;;24.35;19.05;;;;;;;11.83;60.45;101836.56;5030152;28;20034;-62
2022/03/17 00:36:46;;;;;;;27.90;20.48;;;;;;;11.77;60.50;101833.66;5027075;28;20121;-63
2022/03/17 00:39:11;;;;;;;25.30;19.90;;;;;;;11.79;60.64;101839.00;5028517;28;20026;-62
2022/03/17 00:41:36;;;;;;;23.40;19.30;;;;;;;11.78;60.69;101843.69;5029269;28;20079;-63
2022/03/17 00:44:03;;;;;;;27.30;19.98;;;;;;;11.77;60.84;101838.38;5027358;28;20022;-62
2022/03/17 00:46:29;;;;;;;27.70;21.25;;;;;;;11.76;60.83;101845.03;5028712;28;20365;-62
2022/03/17 00:48:54;;;;;;;26.25;20.58;;;;;;;11.76;60.75;101845.03;5031802;28;20103;-62
2022/03/17 00:51:20;;;;;;;26.65;21.02;;;;;;;11.76;60.76;101847.81;5029479;28;20033;-62
2022/03/17 00:53:46;;;;;;;27.05;20.75;;;;;;;11.70;61.04;101845.97;5027948;28;20030;-61
2022/03/17 00:56:11;;;;;;;27.52;20.55;;;;;;;11.74;61.29;101847.19;5029457;28;20071;-62
2022/03/17 00:58:37;;;;;;;26.73;20.50;;;;;;;11.74;61.11;101847.19;5028525;28;20049;-62
2022/03/17 01:01:03;;;;;;;31.10;20.13;;;;;;;11.78;60.88;101857.59;5028435;28;20033;-62
2022/03/17 01:03:28;;;;;;;26.10;20.83;;;;;;;11.74;61.06;101848.03;5028490;28;20365;-62
2022/03/17 01:05:53;;;;;;;27.17;21.17;;;;;;;11.76;61.08;101850.59;5027471;28;20485;-62
2022/03/17 01:08:19;;;;;;;26.13;20.60;;;;;;;11.73;61.24;101857.47;5030392;28;20021;-62
2022/03/17 01:10:44;;;;;;;28.63;20.15;;;;;;;11.71;61.44;101853.22;5026947;28;20203;-63
2022/03/17 01:13:10;;;;;;;24.15;19.80;;;;;;;11.73;61.51;101857.47;5031947;28;20030;-62
2022/03/17 01:15:35;;;;;;;24.65;20.40;;;;;;;11.67;61.58;101852.00;5030366;28;20037;-62
2022/03/17 01:18:02;;;;;;;32.13;21.15;;;;;;;11.72;61.84;101860.50;5029943;28;20025;-62
2022/03/17 01:20:29;;;;;;;27.25;20.85;;;;;;;11.71;61.85;101854.09;5037524;28;20025;-62
2022/03/17 01:22:54;;;;;;;30.05;21.63;;;;;;;11.69;61.96;101844.28;5028847;28;20037;-62
2022/03/17 01:25:19;;;;;;;27.65;20.60;;;;;;;11.67;61.97;101838.97;5031204;28;20034;-62
2022/03/17 01:27:45;;;;;;;28.27;21.27;;;;;;;11.68;62.36;101846.22;5028872;28;20029;-62
2022/03/17 01:30:11;;;;;;;28.00;20.70;;;;;;;11.71;62.17;101842.09;5028365;28;20025;-62
2022/03/17 01:32:38;;;;;;;26.65;21.23;;;;;;;11.68;62.28;101848.16;5031095;28;20479;-62
2022/03/17 01:35:05;;;;;;;30.00;21.55;;;;;;;11.68;62.29;101843.44;5030905;28;20029;-63
2022/03/17 01:37:30;;;;;;;26.65;20.77;;;;;;;11.64;62.58;101846.91;5033475;28;20037;-62
2022/03/17 01:39:56;;;;;;;28.13;21.40;;;;;;;11.65;62.85;101832.78;5034177;28;20040;-62
2022/03/17 01:42:21;;;;;;;30.48;22.02;;;;;;;11.66;62.42;101837.25;5033756;28;20033;-62
2022/03/17 01:44:46;;;;;;;29.48;21.95;;;;;;;11.69;62.71;101834.00;5033303;28;20033;-62
2022/03/17 01:47:26;;;;;;;29.20;20.15;;;;;;;11.68;62.56;101850.94;5033775;28;20114;-62
2022/03/17 01:49:52;;;;;;;27.10;20.33;;;;;;;11.70;62.74;101855.16;5036173;28;20061;-62
2022/03/17 01:52:18;;;;;;;25.92;21.17;;;;;;;11.71;62.69;101854.09;5034928;28;20107;-62
2022/03/17 01:54:44;;;;;;;28.05;21.25;;;;;;;11.73;63.02;101839.94;5029844;28;20034;-61
2022/03/17 01:57:10;;;;;;;32.03;21.35;;;;;;;11.70;63.33;101846.81;5030720;28;21483;-62
2022/03/17 01:59:38;;;;;;;28.45;21.50;;;;;;;11.70;63.40;101845.97;5031012;28;20408;-63
2022/03/17 02:02:08;;;;;;;28.63;21.67;;;;;;;11.70;63.33;101841.25;5029741;28;21326;-62
2022/03/17 02:04:35;;;;;;;27.85;21.38;;;;;;;11.67;63.53;101835.31;5033206;28;20033;-62
2022/03/17 02:07:01;;;;;;;28.95;21.58;;;;;;;11.65;63.89;101835.56;5035553;28;20017;-62
2022/03/17 02:09:26;;;;;;;25.67;21.35;;;;;;;11.65;64.02;101837.50;5033887;28;20071;-62
2022/03/17 02:14:49;;;;;;;31.52;22.08;;;;;;;11.65;63.98;101852.22;5032193;28;20115;-62
2022/03/17 02:17:15;;;;;;;28.92;21.13;;;;;;;11.65;64.36;101843.91;5030195;28;20041;-62
2022/03/17 02:19:40;;;;;;;28.02;21.25;;;;;;;11.63;64.09;101859.97;5031208;28;20540;-62
2022/03/17 02:22:09;;;;;;;26.90;20.83;;;;;;;11.65;64.36;101859.72;5031843;28;20120;-62
2022/03/17 02:27:19;;;;;;;31.48;21.83;;;;;;;11.66;64.14;101859.50;5026772;28;20127;-62
2022/03/17 02:29:44;;;;;;;32.35;22.10;;;;;;;11.69;64.35;101858.19;5029795;28;20037;-62
2022/03/17 02:32:09;;;;;;;34.80;22.10;;;;;;;11.71;64.21;101869.91;5030619;28;20027;-62
2022/03/17 02:34:35;;;;;;;29.55;23.13;;;;;;;11.69;64.65;101874.88;5030269;28;20821;-62
2022/03/17 02:37:01;;;;;;;29.55;21.55;;;;;;;11.68;64.50;101870.41;5030641;28;20017;-62
2022/03/17 02:39:26;;;;;;;27.63;21.55;;;;;;;11.72;64.43;101878.03;5031121;28;20029;-60
2022/03/17 02:41:51;;;;;;;30.58;21.70;;;;;;;11.74;64.53;101880.56;5031631;28;20429;-60
2022/03/17 02:44:17;;;;;;;31.20;21.67;;;;;;;11.76;64.66;101887.59;5029522;28;20029;-61
2022/03/17 02:46:42;;;;;;;29.10;22.88;;;;;;;11.77;65.32;101892.06;5028595;28;20045;-61
2022/03/17 02:49:07;;;;;;;31.65;25.00;;;;;;;11.75;66.09;101877.56;5032150;28;20040;-61
2022/03/17 02:51:32;;;;;;;38.90;24.10;;;;;;;11.75;66.78;101893.38;5031934;28;20040;-61
2022/03/17 02:53:58;;;;;;;36.53;25.52;;;;;;;11.78;67.02;101899.31;5032441;28;20084;-62
2022/03/17 02:56:24;;;;;;;39.60;26.35;;;;;;;11.81;68.02;101906.34;5032142;28;20045;-61
2022/03/17 02:58:50;;;;;;;41.10;26.13;;;;;;;11.81;68.59;101914.69;5031478;28;20040;-61
2022/03/17 03:01:15;;;;;;;45.83;29.48;;;;;;;11.78;70.58;101917.94;5032754;28;20451;-62
2022/03/17 03:03:40;;;;;;;40.78;29.88;;;;;;;11.80;70.40;101924.97;5030275;28;20544;-61
2022/03/17 03:06:06;;;;;;;33.92;25.67;;;;;;;11.81;70.66;101920.25;5032293;28;20033;-61
2022/03/17 03:08:32;;;;;;;29.75;23.35;;;;;;;11.78;71.11;101929.06;5030629;28;20060;-61
2022/03/17 03:10:57;;;;;;;31.42;23.52;;;;;;;11.74;71.68;101933.41;5031697;28;20384;-61
2022/03/17 03:13:22;;;;;;;26.00;20.15;;;;;;;11.73;71.83;101940.91;5031339;28;20118;-61
2022/03/17 03:15:50;;;;;;;26.42;19.38;;;;;;;11.72;72.49;101950.34;5031560;28;20799;-62
2022/03/17 03:18:15;;;;;;;22.20;18.33;;;;;;;11.71;72.64;101970.91;5030353;28;20036;-62
2022/03/17 03:20:40;;;;;;;20.65;17.65;;;;;;;11.72;72.78;101974.53;5029499;28;20033;-61
2022/03/17 03:23:06;;;;;;;18.63;14.68;;;;;;;11.67;73.19;101978.00;5030422;28;20037;-62
2022/03/17 03:25:31;;;;;;;14.60;12.98;;;;;;;11.63;72.73;101978.69;5030800;28;20037;-61
2022/03/17 03:27:56;;;;;;;14.15;12.27;;;;;;;11.66;72.80;101983.78;5029521;28;20562;-62
2022/03/17 03:30:21;;;;;;;12.88;11.52;;;;;;;11.66;72.62;101997.69;5030580;28;20036;-61
2022/03/17 03:32:47;;;;;;;13.48;12.07;;;;;;;11.65;73.02;102001.56;5030147;28;20033;-62
2022/03/17 03:37:58;;;;;;;13.40;11.75;;;;;;;11.58;72.96;102009.13;5032937;28;20049;-61
2022/03/17 03:40:24;;;;;;;12.77;11.27;;;;;;;11.52;72.81;102016.47;5031273;28;20025;-61
2022/03/17 03:42:49;;;;;;;13.60;12.20;;;;;;;11.50;72.58;102019.47;5028580;28;20064;-62
2022/03/17 03:45:15;;;;;;;14.07;12.68;;;;;;;11.48;72.45;102030.00;5031606;28;20037;-62
2022/03/17 03:47:40;;;;;;;14.77;12.77;;;;;;;11.49;72.55;102033.63;5030084;28;20400;-62
2022/03/17 03:50:06;;;;;;;14.70;13.15;;;;;;;11.46;72.06;102045.19;5022720;28;20030;-61
2022/03/17 03:52:31;;;;;;;15.65;14.05;;;;;;;11.38;72.46;102063.00;5028584;28;20029;-61
2022/03/17 03:55:15;;;;;;;14.85;13.35;;;;;;;11.39;72.15;102061.94;5030371;28;20044;-61
2022/03/17 03:57:40;;;;;;;16.88;14.82;;;;;;;11.27;71.71;102075.72;5029082;28;20036;-61
2022/03/17 04:02:59;;;;;;;23.58;17.70;;;;;;;11.02;71.41;102086.84;4996412;28;20455;-61
2022/03/17 04:05:29;;;;;;;22.58;17.80;;;;;;;10.94;71.38;102102.97;5030062;28;20120;-61
2022/03/17 04:07:55;;;;;;;24.45;18.65;;;;;;;10.84;71.77;102109.00;5030085;28;20028;-62
2022/03/17 04:10:21;;;;;;;26.70;18.83;;;;;;;10.77;72.13;102113.78;5030580;28;20048;-62
2022/03/17 04:12:46;;;;;;;26.70;19.38;;;;;;;10.89;71.67;102119.47;5033341;28;20112;-62
2022/03/17 04:15:11;;;;;;;25.52;19.42;;;;;;;10.87;72.03;102122.44;5031889;28;20036;-62
2022/03/17 04:17:37;;;;;;;24.35;19.45;;;;;;;10.84;72.27;102136.78;5036492;28;20027;-62
2022/03/17 04:20:03;;;;;;;26.58;18.80;;;;;;;10.87;72.24;102150.22;5034854;28;20381;-60
2022/03/17 04:22:30;;;;;;;23.02;17.20;;;;;;;10.87;71.88;102158.53;5029388;28;20051;-61
2022/03/17 04:24:55;;;;;;;23.30;16.77;;;;;;;10.89;71.51;102161.97;5030415;28;20079;-62
2022/03/17 04:27:20;;;;;;;18.65;15.68;;;;;;;10.90;71.05;102168.38;5032573;28;20476;-62
2022/03/17 04:29:45;;;;;;;21.55;16.17;;;;;;;10.85;71.32;102176.53;5032441;28;20029;-62
2022/03/17 04:32:11;;;;;;;23.30;14.93;;;;;;;10.86;70.91;102184.63;5033544;28;20037;-62
2022/03/17 04:34:36;;;;;;;20.33;15.57;;;;;;;10.84;70.35;102199.81;5033457;28;20034;-62
2022/03/17 04:37:02;;;;;;;21.58;15.82;;;;;;;10.82;70.20;102194.47;5032860;28;20033;-62
2022/03/17 04:39:27;;;;;;;26.33;15.05;;;;;;;10.78;69.53;102207.09;5029525;28;20492;-61
2022/03/17 04:41:52;;;;;;;26.20;15.82;;;;;;;10.78;69.59;102221.84;5029717;28;20036;-61
2022/03/17 04:44:17;;;;;;;26.67;16.02;;;;;;;10.76;69.62;102212.03;5030432;28;20534;-62
2022/03/17 04:46:43;;;;;;;24.13;15.10;;;;;;;10.60;69.66;102212.53;5028695;28;20040;-62
2022/03/17 04:49:10;;;;;;;25.17;14.95;;;;;;;10.64;69.30;102230.44;5029249;28;20025;-61
2022/03/17 04:51:35;;;;;;;22.70;14.75;;;;;;;10.55;68.87;102232.63;5028251;28;20117;-63
2022/03/17 04:54:00;;;;;;;21.73;14.43;;;;;;;10.63;68.87;102242.63;5030919;28;20080;-61
2022/03/17 04:56:26;;;;;;;19.77;12.90;;;;;;;10.59;68.68;102241.38;5030407;28;20552;-63
2022/03/17 04:58:51;;;;;;;25.55;12.65;;;;;;;10.58;68.71;102251.63;5028585;28;20053;-63
2022/03/17 05:01:17;;;;;;;21.00;12.75;;;;;;;10.57;68.27;102270.22;5030391;28;20029;-63
2022/03/17 05:03:43;;;;;;;23.95;14.02;;;;;;;10.51;68.04;102265.53;5030178;28;20040;-63
2022/03/17 05:06:13;;;;;;;24.70;14.32;;;;;;;10.54;68.10;102273.44;5030018;28;20113;-62
2022/03/17 05:08:39;;;;;;;21.83;12.68;;;;;;;10.57;67.68;102286.00;5029893;28;20033;-62
2022/03/17 05:11:06;;;;;;;26.13;13.32;;;;;;;10.47;67.28;102292.00;5025401;28;20096;-63
2022/03/17 05:13:32;;;;;;;20.25;12.57;;;;;;;10.55;67.16;102299.25;5030510;28;20044;-63
2022/03/17 05:15:59;;;;;;;23.58;12.15;;;;;;;10.52;66.67;102319.13;5029228;28;20033;-63
2022/03/17 05:18:25;;;;;;;21.23;11.05;;;;;;;10.54;66.41;102326.16;5030330;28;20144;-63
2022/03/17 05:20:50;;;;;;;17.27;9.93;;;;;;;10.56;66.00;102329.56;5030624;28;20469;-62
2022/03/17 05:23:17;;;;;;;17.55;8.70;;;;;;;10.53;65.75;102346.69;5030998;28;20410;-63
2022/03/17 05:25:45;;;;;;;19.90;8.30;;;;;;;10.43;65.38;102354.59;5028638;28;20033;-63
2022/03/17 05:28:11;;;;;;;15.85;6.88;;;;;;;10.47;65.27;102358.63;5030305;28;20026;-62
2022/03/17 05:30:37;;;;;;;18.17;7.20;;;;;;;10.47;65.27;102353.09;5029011;28;20030;-62
2022/03/17 05:33:04;;;;;;;17.65;6.85;;;;;;;10.45;65.57;102360.78;5027121;28;20026;-62
2022/03/17 05:35:30;;;;;;;12.80;6.25;;;;;;;10.47;64.95;102372.53;5029577;28;20029;-62
2022/03/17 05:37:56;;;;;;;13.45;5.90;;;;;;;10.46;64.77;102367.19;5029319;28;20052;-62
2022/03/17 05:40:23;;;;;;;12.93;5.38;;;;;;;10.38;64.55;102379.38;5029285;28;20028;-62
2022/03/17 05:42:57;;;;;;;15.10;6.07;;;;;;;10.35;64.84;102385.34;5017040;28;20037;-63
2022/03/17 05:45:26;;;;;;;11.95;6.00;;;;;;;10.31;64.30;102398.78;5031539;28;20037;-63
2022/03/17 05:47:53;;;;;;;15.20;5.50;;;;;;;10.21;64.01;102403.03;5022772;28;20088;-62
2022/03/17 05:50:21;;;;;;;11.25;5.35;;;;;;;10.25;64.60;102412.66;5026445;28;20041;-62
2022/03/17 05:52:48;;;;;;;10.95;4.88;;;;;;;10.30;64.14;102408.19;5027637;28;20017;-63
2022/03/17 05:55:16;;;;;;;14.95;5.05;;;;;;;10.30;63.93;102419.31;5028017;28;20771;-62
2022/03/17 05:57:45;;;;;;;10.55;5.25;;;;;;;10.12;63.77;102421.81;5028991;28;20135;-63
2022/03/17 06:00:13;;;;;;;12.25;4.85;;;;;;;10.22;64.16;102433.34;5029617;28;20046;-63
2022/03/17 06:02:39;;;;;;;14.50;4.57;;;;;;;10.11;63.96;102441.44;5024160;28;20045;-62
2022/03/17 06:05:06;;;;;;;12.38;4.90;;;;;;;10.01;64.44;102439.91;5029337;28;20120;-62
2022/03/17 06:07:37;;;;;;;10.27;5.00;;;;;;;10.13;64.39;102448.47;5025417;28;20044;-62
2022/03/17 06:10:07;;;;;;;10.15;4.50;;;;;;;10.14;64.73;102452.97;5027936;28;20092;-62
2022/03/17 06:12:33;;;;;;;9.40;4.22;;;;;;;10.10;64.83;102462.78;5022983;28;20040;-62
2022/03/17 06:14:58;;;;;;;10.90;4.82;;;;;;;10.03;64.82;102467.47;5024527;28;20041;-62
2022/03/17 06:17:35;;;;;;;11.98;4.70;;;;;;;10.14;64.94;102480.72;5028643;28;20021;-63
2022/03/17 06:20:01;;;;;;;10.45;4.53;;;;;;;10.15;64.88;102485.22;5017186;28;21469;-63
2022/03/17 06:22:26;;;;;;;10.18;4.63;;;;;;;10.13;65.08;102486.47;5020603;28;20029;-62
2022/03/17 06:24:51;;;;;;;14.55;5.43;;;;;;;10.09;65.70;102495.22;5028208;28;20045;-62
2022/03/17 06:27:16;;;;;;;9.02;4.00;;;;;;;10.07;65.32;102494.56;5028479;28;20049;-62
2022/03/17 06:29:42;;;;;;;12.52;4.88;;;;;;;10.04;65.59;102503.31;5033559;28;20585;-61
2022/03/17 06:32:08;;;;;;;13.85;4.95;;;;;;;10.11;65.19;102506.13;5030145;28;20041;-62
2022/03/17 06:34:36;;;;;;;9.77;4.25;;;;;;;10.14;65.50;102513.16;5032234;28;20044;-61
2022/03/17 06:37:01;;;;;;;11.00;4.45;;;;;;;10.13;64.87;102519.75;5029229;28;20022;-61
2022/03/17 06:39:26;;;;;;;12.10;5.05;;;;;;;10.07;65.07;102521.47;5021386;28;20041;-61
2022/03/17 06:41:54;;;;;;;11.75;4.63;;;;;;;10.02;64.66;102535.97;5025724;28;20017;-62
2022/03/17 06:44:22;;;;;;;13.13;4.93;;;;;;;10.05;65.03;102545.78;5027644;28;20138;-62
2022/03/17 06:46:47;;;;;;;9.68;4.57;;;;;;;10.07;65.10;102550.06;5026812;28;20408;-59
2022/03/17 06:49:13;;;;;;;11.73;5.00;;;;;;;10.07;65.01;102552.84;5021633;28;20032;-59
2022/03/17 06:51:38;;;;;;;14.73;4.60;;;;;;;10.08;64.52;102560.09;5030857;28;20381;-58
2022/03/17 06:54:03;;;;;;;12.23;4.32;;;;;;;10.05;64.66;102560.50;5020561;28;20034;-59
2022/03/17 06:56:28;;;;;;;8.13;3.70;;;;;;;9.95;64.31;102564.75;5024530;28;20522;-61
2022/03/17 06:58:56;;;;;;;11.07;3.92;;;;;;;10.06;64.03;102578.00;5026986;28;20757;-61
2022/03/17 07:01:21;;;;;;;9.43;3.53;;;;;;;10.01;63.83;102586.09;5029359;28;20491;-58
2022/03/17 07:03:46;;;;;;;6.10;3.10;;;;;;;10.04;63.89;102589.31;5025007;28;20042;-60
2022/03/17 07:06:12;;;;;;;12.02;2.85;;;;;;;10.06;62.70;102592.75;5029401;28;20530;-61
2022/03/17 07:08:37;;;;;;;8.93;2.70;;;;;;;10.01;62.88;102600.81;5022676;28;20037;-61
2022/03/17 07:11:02;;;;;;;11.27;2.40;;;;;;;10.06;62.15;102605.75;5032115;28;20435;-61
2022/03/17 07:13:27;;;;;;;10.68;2.40;;;;;;;10.00;62.18;102606.59;5027437;28;20041;-61
2022/03/17 07:15:56;;;;;;;9.32;2.10;;;;;;;10.00;62.61;102612.13;5029109;28;20046;-61
2022/03/17 07:18:22;;;;;;;8.70;1.83;;;;;;;10.06;62.78;102614.94;5022096;28;20368;-61
2022/03/17 07:20:47;;;;;;;7.38;2.10;;;;;;;9.99;62.13;102615.97;5027802;28;20029;-61
2022/03/17 07:23:12;;;;;;;9.20;2.25;;;;;;;9.97;62.43;102627.25;5031207;28;20044;-61
2022/03/17 07:25:37;;;;;;;7.03;2.33;;;;;;;9.94;62.45;102624.03;5031336;28;20117;-60
2022/03/17 07:28:04;;;;;;;9.80;2.65;;;;;;;10.02;62.26;102637.75;5028184;28;20041;-61
2022/03/17 07:30:31;;;;;;;7.95;2.30;;;;;;;9.97;62.17;102637.50;5030242;28;20066;-62
2022/03/17 07:32:58;;;;;;;9.75;2.28;;;;;;;9.87;62.64;102645.38;5030829;28;20030;-61
2022/03/17 07:35:25;;;;;;;7.57;2.70;;;;;;;9.95;63.12;102665.47;5020148;28;20037;-61
2022/03/17 07:37:51;;;;;;;9.93;2.90;;;;;;;9.80;63.85;102661.97;5030813;28;20417;-60
2022/03/17 07:40:16;;;;;;;13.48;2.90;;;;;;;9.89;64.14;102679.28;5026518;28;20093;-60
2022/03/17 07:42:41;;;;;;;9.90;2.63;;;;;;;9.82;64.41;102677.34;5029341;28;20048;-60
2022/03/17 07:45:07;;;;;;;10.20;2.55;;;;;;;9.88;64.25;102678.44;5024135;28;20029;-60
2022/03/17 07:47:33;;;;;;;7.78;2.22;;;;;;;9.84;64.53;102682.69;5031592;28;20038;-61
2022/03/17 07:50:00;;;;;;;12.38;2.92;;;;;;;9.83;64.35;102683.75;5027257;28;20024;-60
2022/03/17 07:52:26;;;;;;;8.10;2.50;;;;;;;9.87;64.04;102690.59;5032397;28;20037;-60
2022/03/17 07:54:52;;;;;;;15.20;2.63;;;;;;;10.13;64.10;102697.34;5030352;28;20121;-61
2022/03/17 07:57:18;;;;;;;7.25;1.98;;;;;;;10.16;62.59;102702.50;5032366;28;20108;-60
2022/03/17 07:59:43;;;;;;;11.82;1.88;;;;;;;10.06;62.63;102698.19;5028058;28;20053;-59
2022/03/17 08:02:08;;;;;;;8.85;2.05;;;;;;;9.97;63.24;102707.72;5030610;28;20033;-59
2022/03/17 08:04:40;;;;;;;7.88;2.05;;;;;;;10.03;62.95;102709.69;5031432;28;20032;-61
2022/03/17 08:07:05;;;;;;;8.57;2.15;;;;;;;10.00;63.14;102718.41;5029755;28;20025;-61
2022/03/17 08:09:30;;;;;;;11.48;2.33;;;;;;;9.93;62.44;102716.66;5028302;28;20392;-61
2022/03/17 08:11:56;;;;;;;10.48;2.25;;;;;;;9.86;62.43;102733.22;5030836;28;20080;-61
2022/03/17 08:14:22;;;;;;;8.18;1.77;;;;;;;9.87;61.81;102728.56;5029476;28;20050;-61
2022/03/17 08:16:47;;;;;;;10.00;2.28;;;;;;;9.88;61.89;102733.91;5029237;28;20789;-61
2022/03/17 08:19:12;;;;;;;10.02;2.20;;;;;;;9.96;61.35;102732.88;5030396;28;20029;-61
2022/03/17 08:21:39;;;;;;;12.57;2.47;;;;;;;9.83;61.91;102741.97;5029531;28;20068;-61
2022/03/17 08:24:07;;;;;;;8.32;1.88;;;;;;;9.92;61.54;102749.09;5027125;28;20373;-61
2022/03/17 08:26:34;;;;;;;12.40;1.90;;;;;;;10.00;61.51;102762.78;5026414;28;20095;-61
2022/03/17 08:29:00;;;;;;;9.82;2.10;;;;;;;10.00;61.18;102779.44;5025464;28;20477;-62
2022/03/17 08:31:26;;;;;;;8.07;1.85;;;;;;;10.02;60.56;102771.78;5028400;28;20156;-62
2022/03/17 08:33:52;;;;;;;11.70;2.00;;;;;;;10.05;60.05;102774.13;5029626;28;20026;-62
2022/03/17 08:36:17;;;;;;;8.20;1.70;;;;;;;10.10;60.02;102779.09;5030222;28;20084;-61
2022/03/17 08:38:45;;;;;;;7.85;1.70;;;;;;;10.13;58.90;102783.34;5026436;28;20048;-62
2022/03/17 08:41:13;;;;;;;7.75;1.85;;;;;;;10.14;58.64;102796.16;5026242;28;20033;-61
2022/03/17 08:43:38;;;;;;;13.32;2.45;;;;;;;10.08;58.07;102795.94;5024526;28;20034;-63
2022/03/17 08:51:35;;;;;;;8.10;2.13;;;;;;;9.99;58.00;102816.56;5028910;28;20047;-60
2022/03/17 08:54:01;;;;;;;10.30;1.90;;;;;;;9.97;57.92;102820.59;5028563;28;20013;-61
2022/03/17 08:56:27;;;;;;;11.00;2.03;;;;;;;10.01;57.54;102820.00;5029095;28;20083;-60
2022/03/17 08:58:52;;;;;;;10.73;2.15;;;;;;;10.07;57.70;102821.97;5026464;28;20492;-59
2022/03/17 09:01:17;;;;;;;9.30;2.00;;;;;;;10.13;57.11;102823.06;5024181;28;20112;-61
2022/03/17 09:03:46;;;;;;;12.75;2.00;;;;;;;10.15;56.39;102822.88;5026247;28;20131;-61
2022/03/17 09:06:12;;;;;;;12.65;2.10;;;;;;;10.20;56.73;102821.19;5028166;28;20492;-61
2022/03/17 09:08:40;;;;;;;10.82;2.30;;;;;;;10.21;56.43;102830.38;5030725;28;20040;-61
2022/03/17 09:11:05;;;;;;;11.90;2.17;;;;;;;10.24;56.17;102832.75;5032943;28;20021;-60
2022/03/17 09:13:32;;;;;;;9.95;2.17;;;;;;;10.16;56.02;102833.75;5050051;28;20491;-60
2022/03/17 09:15:57;;;;;;;14.48;2.65;;;;;;;10.07;56.39;102840.53;5050002;28;20024;-61
2022/03/17 09:18:27;;;;;;;10.88;2.25;;;;;;;10.10;56.46;102845.69;5041184;28;20742;-61
2022/03/17 09:20:53;;;;;;;11.70;1.98;;;;;;;10.01;56.56;102853.28;5027547;28;20036;-61
2022/03/17 09:23:18;;;;;;;8.85;1.80;;;;;;;10.04;56.48;102863.13;5009766;28;20029;-61
2022/03/17 09:25:44;;;;;;;12.32;2.13;;;;;;;10.06;56.54;102864.66;5011292;28;20393;-61
2022/03/17 09:28:10;;;;;;;10.25;1.80;;;;;;;10.06;55.95;102861.00;5030081;28;20033;-61
2022/03/17 09:30:35;;;;;;;18.92;2.28;;;;;;;10.13;56.05;102864.69;5028954;28;20034;-62
2022/03/17 09:33:03;;;;;;;9.70;1.65;;;;;;;10.22;56.42;102876.53;5030079;28;20017;-61
2022/03/17 09:35:28;;;;;;;10.88;2.00;;;;;;;10.23;56.23;102869.91;5029474;28;20067;-61
2022/03/17 09:37:57;;;;;;;10.82;1.70;;;;;;;10.28;56.30;102873.81;5026326;28;20057;-61
2022/03/17 09:40:22;;;;;;;12.13;2.00;;;;;;;10.29;56.25;102883.00;5027324;28;20034;-61
2022/03/17 09:42:48;;;;;;;8.80;2.00;;;;;;;10.36;56.20;102889.44;5029795;28;20079;-61
2022/03/17 09:45:14;;;;;;;8.00;2.10;;;;;;;10.41;55.80;102889.69;5028870;28;20025;-61
2022/03/17 09:47:44;;;;;;;7.60;1.60;;;;;;;10.32;54.01;102893.69;5029931;28;20060;-61
2022/03/17 09:50:13;;;;;;;8.55;1.55;;;;;;;10.34;55.06;102890.75;5029108;28;20068;-60
2022/03/17 09:52:41;;;;;;;11.23;2.15;;;;;;;10.27;54.57;102896.22;5029438;28;20021;-61
2022/03/17 09:55:10;;;;;;;10.38;2.10;;;;;;;10.26;55.05;102900.91;5021404;28;20026;-61
2022/03/17 09:57:35;;;;;;;10.52;1.73;;;;;;;10.23;55.03;102909.63;5030189;28;20029;-61
2022/03/17 10:00:01;;;;;;;5.93;1.60;;;;;;;10.24;54.39;102913.25;5032358;28;20099;-60
2022/03/17 10:02:26;;;;;;;5.72;1.60;;;;;;;10.23;54.41;102917.94;5033922;28;20033;-61
2022/03/17 10:04:52;;;;;;;9.18;1.92;;;;;;;10.22;54.55;102921.78;5033530;28;20026;-61
2022/03/17 10:07:22;;;;;;;15.32;2.28;;;;;;;10.24;55.02;102929.91;5032166;28;20866;-62
2022/03/17 10:09:50;;;;;;;11.55;2.63;;;;;;;10.28;54.84;102936.78;5032345;28;20033;-61
2022/03/17 10:12:20;;;;;;;11.52;2.25;;;;;;;10.31;55.26;102940.03;5027160;28;20026;-62
2022/03/17 10:14:50;;;;;;;7.45;1.90;;;;;;;10.40;54.66;102942.66;5025589;28;20030;-62
2022/03/17 10:17:34;;;;;;;10.90;2.08;;;;;;;10.38;54.74;102942.00;5032546;28;20068;-62
2022/03/17 10:20:25;;;;;;;11.15;2.10;;;;;;;10.42;54.48;102957.22;5023497;28;20033;-61
2022/03/17 10:22:53;;;;;;;9.00;1.92;;;;;;;10.39;54.32;102955.69;5033887;28;20510;-62
2022/03/17 10:25:21;;;;;;;9.30;1.88;;;;;;;10.42;54.13;102960.00;5032797;28;20034;-62
2022/03/17 10:27:49;;;;;;;10.40;2.13;;;;;;;10.45;54.34;102968.78;5031562;28;20485;-62
2022/03/17 10:30:20;;;;;;;9.15;1.77;;;;;;;10.53;54.66;102973.28;5031167;28;20060;-61
2022/03/17 10:33:02;;;;;;;12.73;1.88;;;;;;;10.57;54.88;102975.50;5029342;28;20033;-61
2022/03/17 10:35:34;;;;;;;8.82;1.85;;;;;;;10.57;54.57;102975.50;5032267;28;20034;-62
2022/03/17 10:38:17;;;;;;;7.28;1.48;;;;;;;10.63;54.70;102981.28;5033318;28;20025;-62
2022/03/17 10:40:43;;;;;;;7.43;1.70;;;;;;;10.53;53.93;102990.84;5030074;28;20026;-62
2022/03/17 10:43:22;;;;;;;8.70;2.08;;;;;;;10.61;54.55;102992.63;5033318;28;20120;-62
2022/03/17 10:45:47;;;;;;;8.73;1.92;;;;;;;10.60;54.48;102990.03;5032842;28;20079;-62
2022/03/17 10:48:12;;;;;;;10.07;2.03;;;;;;;10.63;54.72;102998.81;5031137;28;20095;-62
2022/03/17 10:50:43;;;;;;;12.00;2.08;;;;;;;10.65;54.90;102996.72;5033484;28;20519;-62
2022/03/17 10:53:10;;;;;;;8.82;2.10;;;;;;;10.60;54.63;103006.69;5032763;28;20389;-62
2022/03/17 10:55:37;;;;;;;13.90;2.58;;;;;;;10.57;54.29;103014.38;5032061;28;20037;-62
2022/03/17 10:58:20;;;;;;;9.40;2.17;;;;;;;10.55;54.89;103023.94;5032009;28;20480;-62
2022/03/17 11:00:57;;;;;;;;;;;;;;;10.71;55.72;103022.81;5033950;28;20037;-62
2022/03/17 11:03:23;;;;;;;7.28;2.15;;;;;;;10.57;55.02;103036.59;5032048;28;19917;-62
2022/03/17 11:05:50;;;;;;;9.38;1.75;;;;;;;10.56;54.90;103034.00;5013268;28;20049;-62
2022/03/17 11:08:17;;;;;;;8.93;2.00;;;;;;;10.54;53.78;103039.75;5011433;28;20022;-62
2022/03/17 11:10:42;;;;;;;6.53;1.77;;;;;;;10.51;53.94;103048.47;5011420;28;20022;-61
2022/03/17 11:13:12;;;;;;;9.10;1.88;;;;;;;10.53;52.53;103056.59;5026260;28;20043;-61
2022/03/17 11:15:41;;;;;;;7.03;1.95;;;;;;;10.57;52.74;103057.91;5030975;28;20500;-62
2022/03/17 11:18:18;;;;;;;7.10;1.70;;;;;;;10.65;52.61;103054.13;5032005;28;20057;-62
2022/03/17 11:20:45;;;;;;;8.45;1.75;;;;;;;10.71;52.18;103065.31;5030871;28;20497;-62
2022/03/17 11:23:24;;;;;;;5.90;1.90;;;;;;;10.71;51.51;103062.53;5031523;28;20040;-60
2022/03/17 11:25:54;;;;;;;4.82;1.60;;;;;;;10.67;51.14;103064.00;5030974;28;20068;-61
2022/03/17 11:28:32;;;;;;;5.40;1.45;;;;;;;10.73;51.79;103059.59;5029009;28;20026;-61
2022/03/17 11:31:01;;;;;;;6.72;1.90;;;;;;;10.75;51.84;103069.41;5020170;28;20030;-60